sensor_id;sensor_type;location;lat;lon;timestamp;pressure;altitude;pressure_sealevel;temperature;humidity
9709;BME280;4893;42.024;23.098;2022-08-11T00:01:50;96908.44;;;18.23;100.00
9709;BME280;4893;42.024;23.098;2022-08-11T00:04:24;96902.44;;;18.16;100.00
9709;BME280;4893;42.024;23.098;2022-08-11T00:06:51;96906.38;;;18.25;100.00
9709;BME280;4893;42.024;23.098;2022-08-11T00:09:20;96901.47;;;18.29;100.00
9709;BME280;4893;42.024;23.098;2022-08-11T00:11:52;96871.66;;;18.05;100.00
9709;BME280;4893;42.024;23.098;2022-08-11T00:14:36;96905.94;;;18.28;100.00
9709;BME280;4893;42.024;23.098;2022-08-11T00:17:07;96904.75;;;18.42;100.00
9709;BME280;4893;42.024;23.098;2022-08-11T00:19:36;96911.72;;;18.48;100.00
9709;BME280;4893;42.024;23.098;2022-08-11T00:22:03;96900.94;;;18.38;100.00
9709;BME280;4893;42.024;23.098;2022-08-11T00:24:35;96903.72;;;18.43;100.00
9709;BME280;4893;42.024;23.098;2022-08-11T00:27:01;96907.50;;;18.47;100.00
9709;BME280;4893;42.024;23.098;2022-08-11T00:29:27;96907.88;;;18.33;100.00
9709;BME280;4893;42.024;23.098;2022-08-11T00:31:55;96908.66;;;18.22;100.00
9709;BME280;4893;42.024;23.098;2022-08-11T00:34:27;96910.19;;;18.11;100.00
9709;BME280;4893;42.024;23.098;2022-08-11T00:37:17;96914.59;;;18.17;100.00
9709;BME280;4893;42.024;23.098;2022-08-11T00:39:45;96912.88;;;18.23;100.00
9709;BME280;4893;42.024;23.098;2022-08-11T00:45:31;96915.44;;;17.81;100.00
9709;BME280;4893;42.024;23.098;2022-08-11T00:48:27;96919.72;;;17.94;100.00
9709;BME280;4893;42.024;23.098;2022-08-11T00:51:18;96923.63;;;18.03;100.00
9709;BME280;4893;42.024;23.098;2022-08-11T01:00:14;96910.25;;;17.75;100.00
9709;BME280;4893;42.024;23.098;2022-08-11T01:05:54;96905.25;;;17.85;100.00
9709;BME280;4893;42.024;23.098;2022-08-11T01:33:49;96898.84;;;17.45;100.00
9709;BME280;4893;42.024;23.098;2022-08-11T01:45:05;96903.13;;;17.39;100.00
9709;BME280;4893;42.024;23.098;2022-08-11T01:47:46;96911.94;;;17.27;100.00
9709;BME280;4893;42.024;23.098;2022-08-11T02:04:17;96905.66;;;17.10;100.00
9709;BME280;4893;42.024;23.098;2022-08-11T02:07:01;96902.75;;;17.18;100.00
9709;BME280;4893;42.024;23.098;2022-08-11T02:09:56;96904.28;;;17.25;100.00
9709;BME280;4893;42.024;23.098;2022-08-11T02:12:52;96876.63;;;17.05;100.00
9709;BME280;4893;42.024;23.098;2022-08-11T02:15:26;96903.19;;;17.15;100.00
9709;BME280;4893;42.024;23.098;2022-08-11T02:23:44;96899.22;;;17.06;100.00
9709;BME280;4893;42.024;23.098;2022-08-11T02:26:23;96899.59;;;17.09;100.00
9709;BME280;4893;42.024;23.098;2022-08-11T02:28:53;96901.78;;;17.12;100.00
9709;BME280;4893;42.024;23.098;2022-08-11T02:42:32;96902.31;;;16.96;100.00
9709;BME280;4893;42.024;23.098;2022-08-11T02:45:17;96902.31;;;16.96;100.00
9709;BME280;4893;42.024;23.098;2022-08-11T02:53:47;96896.84;;;16.98;100.00
9709;BME280;4893;42.024;23.098;2022-08-11T02:59:10;96913.47;;;16.92;100.00
9709;BME280;4893;42.024;23.098;2022-08-11T03:02:15;96914.06;;;16.94;100.00
9709;BME280;4893;42.024;23.098;2022-08-11T03:07:23;96909.03;;;16.92;100.00
9709;BME280;4893;42.024;23.098;2022-08-11T03:09:57;96913.09;;;16.88;100.00
9709;BME280;4893;42.024;23.098;2022-08-11T03:12:35;96900.19;;;16.87;100.00
9709;BME280;4893;42.024;23.098;2022-08-11T03:15:30;96911.38;;;17.00;100.00
9709;BME280;4893;42.024;23.098;2022-08-11T03:18:28;96909.66;;;16.88;100.00
9709;BME280;4893;42.024;23.098;2022-08-11T03:21:20;96908.41;;;16.66;100.00
9709;BME280;4893;42.024;23.098;2022-08-11T03:23:59;96921.22;;;16.80;100.00
9709;BME280;4893;42.024;23.098;2022-08-11T03:26:30;96919.25;;;16.76;100.00
9709;BME280;4893;42.024;23.098;2022-08-11T03:34:44;96912.50;;;16.62;100.00
9709;BME280;4893;42.024;23.098;2022-08-11T04:00:56;96905.28;;;16.50;100.00
9709;BME280;4893;42.024;23.098;2022-08-11T04:10:10;96922.50;;;16.71;100.00
9709;BME280;4893;42.024;23.098;2022-08-11T04:16:14;96926.59;;;16.92;100.00
9709;BME280;4893;42.024;23.098;2022-08-11T04:19:21;96928.78;;;16.95;100.00
9709;BME280;4893;42.024;23.098;2022-08-11T04:27:48;96929.16;;;17.23;100.00
9709;BME280;4893;42.024;23.098;2022-08-11T04:30:32;96919.94;;;17.14;100.00
9709;BME280;4893;42.024;23.098;2022-08-11T04:36:36;96943.00;;;17.54;100.00
9709;BME280;4893;42.024;23.098;2022-08-11T04:39:32;96936.66;;;17.80;100.00
9709;BME280;4893;42.024;23.098;2022-08-11T04:55:25;96974.84;;;21.78;100.00
9709;BME280;4893;42.024;23.098;2022-08-11T05:13:05;96967.47;;;24.70;100.00
9709;BME280;4893;42.024;23.098;2022-08-11T05:16:03;96961.94;;;25.47;100.00
9709;BME280;4893;42.024;23.098;2022-08-11T05:18:53;96968.34;;;25.56;100.00
9709;BME280;4893;42.024;23.098;2022-08-11T05:21:41;96963.75;;;25.81;100.00
9709;BME280;4893;42.024;23.098;2022-08-11T05:24:47;96966.53;;;26.35;92.43
9709;BME280;4893;42.024;23.098;2022-08-11T05:27:49;96961.56;;;27.11;85.30
9709;BME280;4893;42.024;23.098;2022-08-11T05:30:38;96953.81;;;28.00;78.01
9709;BME280;4893;42.024;23.098;2022-08-11T05:33:35;96962.16;;;28.41;74.77
9709;BME280;4893;42.024;23.098;2022-08-11T05:38:57;96969.03;;;29.21;69.67
9709;BME280;4893;42.024;23.098;2022-08-11T05:41:42;96971.41;;;29.73;63.48
9709;BME280;4893;42.024;23.098;2022-08-11T05:44:26;96967.47;;;30.39;59.50
9709;BME280;4893;42.024;23.098;2022-08-11T05:47:21;96962.53;;;30.32;60.50
9709;BME280;4893;42.024;23.098;2022-08-11T05:50:11;96964.09;;;29.93;60.77
9709;BME280;4893;42.024;23.098;2022-08-11T05:52:57;96960.78;;;29.36;64.80
9709;BME280;4893;42.024;23.098;2022-08-11T05:55:43;96922.91;;;29.29;66.26
9709;BME280;4893;42.024;23.098;2022-08-11T05:58:33;96962.28;;;29.88;61.45
9709;BME280;4893;42.024;23.098;2022-08-11T06:00:59;96962.41;;;29.19;64.77
9709;BME280;4893;42.024;23.098;2022-08-11T06:03:29;96975.09;;;29.45;65.58
9709;BME280;4893;42.024;23.098;2022-08-11T06:05:57;96961.78;;;29.40;65.64
9709;BME280;4893;42.024;23.098;2022-08-11T06:08:28;96956.34;;;29.77;62.85
9709;BME280;4893;42.024;23.098;2022-08-11T06:11:00;96959.22;;;29.95;64.31
9709;BME280;4893;42.024;23.098;2022-08-11T06:13:27;96955.91;;;30.79;63.22
9709;BME280;4893;42.024;23.098;2022-08-11T06:15:53;96956.47;;;30.89;57.80
9709;BME280;4893;42.024;23.098;2022-08-11T06:18:20;96962.28;;;31.27;58.63
9709;BME280;4893;42.024;23.098;2022-08-11T06:20:49;96956.09;;;32.01;53.65
9709;BME280;4893;42.024;23.098;2022-08-11T06:23:16;96955.88;;;31.89;54.34
9709;BME280;4893;42.024;23.098;2022-08-11T06:25:45;96955.75;;;31.94;53.79
9709;BME280;4893;42.024;23.098;2022-08-11T06:28:11;96952.16;;;32.47;51.74
9709;BME280;4893;42.024;23.098;2022-08-11T06:30:41;96949.00;;;32.62;51.03
9709;BME280;4893;42.024;23.098;2022-08-11T06:33:10;96946.66;;;33.03;49.07
9709;BME280;4893;42.024;23.098;2022-08-11T06:36:02;96946.66;;;32.12;50.62
9709;BME280;4893;42.024;23.098;2022-08-11T06:38:48;96950.53;;;31.37;53.56
9709;BME280;4893;42.024;23.098;2022-08-11T06:41:23;96944.38;;;31.67;54.51
9709;BME280;4893;42.024;23.098;2022-08-11T06:46:39;96938.56;;;31.73;53.87
9709;BME280;4893;42.024;23.098;2022-08-11T06:49:06;96941.19;;;31.95;52.18
9709;BME280;4893;42.024;23.098;2022-08-11T06:51:53;96940.44;;;31.95;52.00
9709;BME280;4893;42.024;23.098;2022-08-11T06:54:21;96928.78;;;31.77;51.74
9709;BME280;4893;42.024;23.098;2022-08-11T06:56:48;96933.44;;;31.63;54.82
9709;BME280;4893;42.024;23.098;2022-08-11T06:59:33;96931.53;;;32.33;54.87
9709;BME280;4893;42.024;23.098;2022-08-11T07:02:23;96931.25;;;32.52;50.61
9709;BME280;4893;42.024;23.098;2022-08-11T07:04:59;96924.22;;;32.25;51.60
9709;BME280;4893;42.024;23.098;2022-08-11T07:13:09;96925.53;;;31.89;52.06
9709;BME280;4893;42.024;23.098;2022-08-11T07:15:55;96916.41;;;32.07;51.71
9709;BME280;4893;42.024;23.098;2022-08-11T07:18:28;96921.75;;;31.37;55.52
9709;BME280;4893;42.024;23.098;2022-08-11T07:21:20;96926.09;;;31.77;54.69
9709;BME280;4893;42.024;23.098;2022-08-11T07:24:10;96920.13;;;32.36;51.03
9709;BME280;4893;42.024;23.098;2022-08-11T07:26:57;96917.44;;;32.36;57.24
9709;BME280;4893;42.024;23.098;2022-08-11T07:29:45;96922.44;;;32.86;50.33
9709;BME280;4893;42.024;23.098;2022-08-11T07:32:18;96917.19;;;33.06;48.18
9709;BME280;4893;42.024;23.098;2022-08-11T07:34:51;96916.09;;;32.90;48.92
9709;BME280;4893;42.024;23.098;2022-08-11T07:37:20;96904.22;;;32.49;49.88
9709;BME280;4893;42.024;23.098;2022-08-11T07:39:47;96906.09;;;32.65;51.35
9709;BME280;4893;42.024;23.098;2022-08-11T07:42:17;96900.50;;;32.36;52.27
9709;BME280;4893;42.024;23.098;2022-08-11T07:44:46;96902.22;;;32.23;51.99
9709;BME280;4893;42.024;23.098;2022-08-11T07:47:31;96886.66;;;31.95;52.42
9709;BME280;4893;42.024;23.098;2022-08-11T07:50:22;96901.88;;;31.16;55.51
9709;BME280;4893;42.024;23.098;2022-08-11T07:53:06;96884.56;;;30.64;59.51
9709;BME280;4893;42.024;23.098;2022-08-11T07:55:32;96894.94;;;30.57;59.94
9709;BME280;4893;42.024;23.098;2022-08-11T07:58:00;96884.97;;;30.93;60.83
9709;BME280;4893;42.024;23.098;2022-08-11T08:03:30;96878.28;;;30.47;63.59
9709;BME280;4893;42.024;23.098;2022-08-11T08:06:15;96877.63;;;30.41;62.39
9709;BME280;4893;42.024;23.098;2022-08-11T08:09:00;96862.56;;;30.54;61.63
9709;BME280;4893;42.024;23.098;2022-08-11T08:11:45;96863.91;;;30.65;59.10
9709;BME280;4893;42.024;23.098;2022-08-11T08:14:30;96876.38;;;31.27;57.64
9709;BME280;4893;42.024;23.098;2022-08-11T08:17:15;96863.50;;;30.93;59.22
9709;BME280;4893;42.024;23.098;2022-08-11T08:19:59;96867.94;;;30.76;62.94
9709;BME280;4893;42.024;23.098;2022-08-11T08:22:25;96860.50;;;30.86;60.95
9709;BME280;4893;42.024;23.098;2022-08-11T08:24:52;96858.03;;;31.21;59.54
9709;BME280;4893;42.024;23.098;2022-08-11T08:27:18;96862.56;;;31.42;60.50
9709;BME280;4893;42.024;23.098;2022-08-11T08:29:45;96862.44;;;31.47;55.54
9709;BME280;4893;42.024;23.098;2022-08-11T08:32:31;96859.97;;;31.59;56.12
9709;BME280;4893;42.024;23.098;2022-08-11T08:35:02;96740.66;;;30.82;55.66
9709;BME280;4893;42.024;23.098;2022-08-11T08:37:28;96854.31;;;32.25;53.10
9709;BME280;4893;42.024;23.098;2022-08-11T08:39:54;96858.03;;;31.90;53.31
9709;BME280;4893;42.024;23.098;2022-08-11T08:44:55;96851.47;;;33.07;52.50
9709;BME280;4893;42.024;23.098;2022-08-11T08:47:23;96846.56;;;33.01;49.93
9709;BME280;4893;42.024;23.098;2022-08-11T08:50:04;96846.41;;;32.89;53.42
9709;BME280;4893;42.024;23.098;2022-08-11T08:52:36;96850.06;;;32.93;52.42
9709;BME280;4893;42.024;23.098;2022-08-11T08:55:05;96848.00;;;32.81;53.25
9709;BME280;4893;42.024;23.098;2022-08-11T08:57:34;96844.34;;;32.86;52.71
9709;BME280;4893;42.024;23.098;2022-08-11T09:00:01;96824.44;;;32.61;50.38
9709;BME280;4893;42.024;23.098;2022-08-11T09:02:27;96827.41;;;32.77;50.98
9709;BME280;4893;42.024;23.098;2022-08-11T09:04:53;96830.59;;;32.79;50.90
9709;BME280;4893;42.024;23.098;2022-08-11T09:07:22;96820.00;;;33.37;48.69
9709;BME280;4893;42.024;23.098;2022-08-11T09:09:51;96827.75;;;33.55;49.83
9709;BME280;4893;42.024;23.098;2022-08-11T09:12:19;96814.72;;;33.57;47.71
9709;BME280;4893;42.024;23.098;2022-08-11T09:14:48;96810.66;;;33.72;49.27
9709;BME280;4893;42.024;23.098;2022-08-11T09:20:08;96803.16;;;33.11;47.12
9709;BME280;4893;42.024;23.098;2022-08-11T09:22:38;96797.59;;;33.16;45.96
9709;BME280;4893;42.024;23.098;2022-08-11T09:25:25;96810.22;;;33.41;45.96
9709;BME280;4893;42.024;23.098;2022-08-11T09:28:10;96811.00;;;31.79;46.26
9709;BME280;4893;42.024;23.098;2022-08-11T09:30:40;96805.91;;;32.42;45.89
9709;BME280;4893;42.024;23.098;2022-08-11T09:33:06;96788.94;;;32.85;45.63
9709;BME280;4893;42.024;23.098;2022-08-11T09:35:35;96795.13;;;33.02;44.93
9709;BME280;4893;42.024;23.098;2022-08-11T09:38:04;96786.22;;;33.48;45.33
9709;BME280;4893;42.024;23.098;2022-08-11T09:40:50;96787.88;;;33.90;43.28
9709;BME280;4893;42.024;23.098;2022-08-11T09:43:18;96785.78;;;32.74;43.80
9709;BME280;4893;42.024;23.098;2022-08-11T09:46:04;96767.50;;;31.60;46.94
9709;BME280;4893;42.024;23.098;2022-08-11T09:48:35;96774.28;;;32.39;46.78
9709;BME280;4893;42.024;23.098;2022-08-11T09:51:02;96773.72;;;33.43;45.20
9709;BME280;4893;42.024;23.098;2022-08-11T09:53:32;96774.81;;;33.80;42.66
9709;BME280;4893;42.024;23.098;2022-08-11T09:55:59;96759.72;;;34.49;42.03
9709;BME280;4893;42.024;23.098;2022-08-11T09:58:46;96765.53;;;34.84;38.73
9709;BME280;4893;42.024;23.098;2022-08-11T10:01:11;96764.75;;;35.16;39.59
9709;BME280;4893;42.024;23.098;2022-08-11T10:03:54;96729.97;;;35.27;39.19
9709;BME280;4893;42.024;23.098;2022-08-11T10:06:22;96747.72;;;35.04;39.56
9709;BME280;4893;42.024;23.098;2022-08-11T10:09:07;96749.78;;;35.67;38.33
9709;BME280;4893;42.024;23.098;2022-08-11T10:11:35;96740.19;;;35.81;38.14
9709;BME280;4893;42.024;23.098;2022-08-11T10:14:03;96738.50;;;36.41;36.41
9709;BME280;4893;42.024;23.098;2022-08-11T10:16:50;96740.09;;;35.90;37.58
9709;BME280;4893;42.024;23.098;2022-08-11T10:19:17;96738.06;;;35.87;37.46
9709;BME280;4893;42.024;23.098;2022-08-11T10:21:49;96740.69;;;35.71;38.05
9709;BME280;4893;42.024;23.098;2022-08-11T10:24:33;96730.84;;;36.31;36.48
9709;BME280;4893;42.024;23.098;2022-08-11T10:27:18;96730.78;;;36.15;36.67
9709;BME280;4893;42.024;23.098;2022-08-11T10:29:44;96728.84;;;35.16;37.86
9709;BME280;4893;42.024;23.098;2022-08-11T10:32:29;96718.91;;;34.51;40.07
9709;BME280;4893;42.024;23.098;2022-08-11T10:35:16;96720.09;;;34.21;39.31
9709;BME280;4893;42.024;23.098;2022-08-11T10:37:44;96714.59;;;34.17;39.16
9709;BME280;4893;42.024;23.098;2022-08-11T10:40:16;96718.63;;;33.91;41.08
9709;BME280;4893;42.024;23.098;2022-08-11T10:42:42;96723.19;;;33.69;41.67
9709;BME280;4893;42.024;23.098;2022-08-11T10:45:33;96717.06;;;33.81;41.94
9709;BME280;4893;42.024;23.098;2022-08-11T10:48:19;96702.59;;;33.65;40.51
9709;BME280;4893;42.024;23.098;2022-08-11T10:50:47;96720.13;;;32.67;42.31
9709;BME280;4893;42.024;23.098;2022-08-11T10:53:32;96703.09;;;31.94;43.12
9709;BME280;4893;42.024;23.098;2022-08-11T10:56:17;96716.38;;;31.99;43.38
9709;BME280;4893;42.024;23.098;2022-08-11T10:59:04;96709.88;;;32.00;43.08
9709;BME280;4893;42.024;23.098;2022-08-11T11:01:35;96716.88;;;32.01;42.46
9709;BME280;4893;42.024;23.098;2022-08-11T11:04:32;96713.53;;;31.87;43.48
9709;BME280;4893;42.024;23.098;2022-08-11T11:07:08;96701.31;;;31.81;44.12
9709;BME280;4893;42.024;23.098;2022-08-11T11:09:44;96689.81;;;31.89;43.66
9709;BME280;4893;42.024;23.098;2022-08-11T11:12:19;96702.94;;;31.91;44.03
9709;BME280;4893;42.024;23.098;2022-08-11T11:15:25;96696.72;;;31.56;43.41
9709;BME280;4893;42.024;23.098;2022-08-11T11:18:24;96701.13;;;31.52;43.26
9709;BME280;4893;42.024;23.098;2022-08-11T11:20:58;96692.28;;;31.43;43.16
9709;BME280;4893;42.024;23.098;2022-08-11T11:23:48;96702.84;;;31.40;42.73
9709;BME280;4893;42.024;23.098;2022-08-11T11:31:34;96695.03;;;31.21;44.02
9709;BME280;4893;42.024;23.098;2022-08-11T11:34:11;96696.91;;;31.12;44.40
9709;BME280;4893;42.024;23.098;2022-08-11T11:39:05;96694.56;;;30.80;44.19
9709;BME280;4893;42.024;23.098;2022-08-11T11:41:31;96687.47;;;30.84;44.97
9709;BME280;4893;42.024;23.098;2022-08-11T11:43:57;96690.72;;;30.72;44.54
9709;BME280;4893;42.024;23.098;2022-08-11T11:46:27;96683.41;;;30.64;44.41
9709;BME280;4893;42.024;23.098;2022-08-11T11:48:54;96686.41;;;30.63;45.10
9709;BME280;4893;42.024;23.098;2022-08-11T11:51:24;96678.59;;;30.44;44.43
9709;BME280;4893;42.024;23.098;2022-08-11T11:53:51;96686.63;;;30.44;44.67
9709;BME280;4893;42.024;23.098;2022-08-11T11:56:17;96671.19;;;30.50;44.16
9709;BME280;4893;42.024;23.098;2022-08-11T11:58:44;96687.50;;;30.62;44.17
9709;BME280;4893;42.024;23.098;2022-08-11T12:01:30;96678.34;;;30.63;44.23
9709;BME280;4893;42.024;23.098;2022-08-11T12:03:59;96688.47;;;30.88;44.24
9709;BME280;4893;42.024;23.098;2022-08-11T12:06:28;96695.94;;;31.08;43.76
9709;BME280;4893;42.024;23.098;2022-08-11T12:08:55;96677.94;;;31.08;43.55
9709;BME280;4893;42.024;23.098;2022-08-11T12:11:23;96682.69;;;31.11;42.70
9709;BME280;4893;42.024;23.098;2022-08-11T12:14:09;96683.66;;;31.24;43.26
9709;BME280;4893;42.024;23.098;2022-08-11T12:16:37;96671.16;;;31.02;42.53
9709;BME280;4893;42.024;23.098;2022-08-11T12:19:12;96681.53;;;30.95;42.46
9709;BME280;4893;42.024;23.098;2022-08-11T12:21:39;96675.22;;;30.91;42.48
9709;BME280;4893;42.024;23.098;2022-08-11T12:24:27;96671.31;;;30.75;43.20
9709;BME280;4893;42.024;23.098;2022-08-11T12:27:12;96650.47;;;30.72;42.76
9709;BME280;4893;42.024;23.098;2022-08-11T12:29:56;96663.84;;;30.94;41.39
9709;BME280;4893;42.024;23.098;2022-08-11T12:32:28;96663.53;;;30.96;41.92
9709;BME280;4893;42.024;23.098;2022-08-11T12:34:54;96662.03;;;31.21;42.53
9709;BME280;4893;42.024;23.098;2022-08-11T12:37:26;96662.91;;;31.38;41.58
9709;BME280;4893;42.024;23.098;2022-08-11T12:39:58;96647.63;;;31.08;41.82
9709;BME280;4893;42.024;23.098;2022-08-11T12:42:44;96657.03;;;31.36;41.71
9709;BME280;4893;42.024;23.098;2022-08-11T12:45:30;96655.16;;;31.54;40.51
9709;BME280;4893;42.024;23.098;2022-08-11T12:48:06;96651.38;;;31.72;40.48
9709;BME280;4893;42.024;23.098;2022-08-11T12:51:15;96643.47;;;31.67;37.28
9709;BME280;4893;42.024;23.098;2022-08-11T12:56:47;96636.31;;;31.28;39.79
9709;BME280;4893;42.024;23.098;2022-08-11T12:59:34;96632.19;;;31.22;39.85
9709;BME280;4893;42.024;23.098;2022-08-11T13:02:20;96632.94;;;31.05;41.64
9709;BME280;4893;42.024;23.098;2022-08-11T13:05:07;96628.78;;;30.82;41.29
9709;BME280;4893;42.024;23.098;2022-08-11T13:07:34;96631.63;;;30.86;41.67
9709;BME280;4893;42.024;23.098;2022-08-11T13:10:05;96627.88;;;30.95;41.95
9709;BME280;4893;42.024;23.098;2022-08-11T13:12:31;96623.88;;;30.84;41.54
9709;BME280;4893;42.024;23.098;2022-08-11T13:15:19;96627.13;;;31.12;41.28
9709;BME280;4893;42.024;23.098;2022-08-11T13:17:46;96626.66;;;31.19;40.58
9709;BME280;4893;42.024;23.098;2022-08-11T13:20:15;96623.31;;;31.13;40.48
9709;BME280;4893;42.024;23.098;2022-08-11T13:22:46;96628.97;;;30.94;41.14
9709;BME280;4893;42.024;23.098;2022-08-11T13:25:16;96629.75;;;30.86;40.69
9709;BME280;4893;42.024;23.098;2022-08-11T13:27:44;96619.00;;;30.86;41.75
9709;BME280;4893;42.024;23.098;2022-08-11T13:30:12;96633.72;;;30.97;41.47
9709;BME280;4893;42.024;23.098;2022-08-11T13:32:56;96631.22;;;31.01;40.07
9709;BME280;4893;42.024;23.098;2022-08-11T13:35:22;96625.34;;;30.99;40.45
9709;BME280;4893;42.024;23.098;2022-08-11T13:37:49;96622.03;;;31.02;39.99
9709;BME280;4893;42.024;23.098;2022-08-11T13:40:17;96616.22;;;31.08;39.58
9709;BME280;4893;42.024;23.098;2022-08-11T13:42:44;96608.03;;;31.13;39.58
9709;BME280;4893;42.024;23.098;2022-08-11T13:45:11;96614.19;;;31.14;39.48
9709;BME280;4893;42.024;23.098;2022-08-11T13:47:38;96619.97;;;30.99;39.27
9709;BME280;4893;42.024;23.098;2022-08-11T13:50:07;96615.03;;;30.84;39.43
9709;BME280;4893;42.024;23.098;2022-08-11T13:52:35;96612.41;;;30.62;38.98
9709;BME280;4893;42.024;23.098;2022-08-11T13:55:05;96611.72;;;30.87;39.09
9709;BME280;4893;42.024;23.098;2022-08-11T13:57:32;96614.94;;;30.97;38.76
9709;BME280;4893;42.024;23.098;2022-08-11T13:59:58;96613.78;;;30.90;38.79
9709;BME280;4893;42.024;23.098;2022-08-11T14:02:35;96611.59;;;30.92;38.32
9709;BME280;4893;42.024;23.098;2022-08-11T14:05:09;96622.22;;;31.05;38.37
9709;BME280;4893;42.024;23.098;2022-08-11T14:07:45;96627.16;;;31.21;38.17
9709;BME280;4893;42.024;23.098;2022-08-11T14:10:13;96626.31;;;31.11;38.39
9709;BME280;4893;42.024;23.098;2022-08-11T14:12:42;96622.69;;;31.16;38.67
9709;BME280;4893;42.024;23.098;2022-08-11T14:15:32;96624.50;;;31.46;37.56
9709;BME280;4893;42.024;23.098;2022-08-11T14:18:08;96621.66;;;31.34;37.76
9709;BME280;4893;42.024;23.098;2022-08-11T14:20:38;96618.00;;;31.30;37.60
9709;BME280;4893;42.024;23.098;2022-08-11T14:23:30;96613.94;;;31.41;38.17
9709;BME280;4893;42.024;23.098;2022-08-11T14:25:57;96612.81;;;31.34;37.49
9709;BME280;4893;42.024;23.098;2022-08-11T14:28:42;96615.63;;;31.29;38.08
9709;BME280;4893;42.024;23.098;2022-08-11T14:31:08;96608.81;;;31.23;38.96
9709;BME280;4893;42.024;23.098;2022-08-11T14:33:35;96618.28;;;31.20;39.20
9709;BME280;4893;42.024;23.098;2022-08-11T14:36:04;96605.34;;;31.13;39.76
9709;BME280;4893;42.024;23.098;2022-08-11T14:38:32;96597.91;;;30.63;39.22
9709;BME280;4893;42.024;23.098;2022-08-11T14:40:59;96599.25;;;30.43;40.47
9709;BME280;4893;42.024;23.098;2022-08-11T14:43:44;96611.56;;;30.44;41.18
9709;BME280;4893;42.024;23.098;2022-08-11T14:46:29;96601.00;;;30.48;41.09
9709;BME280;4893;42.024;23.098;2022-08-11T14:49:14;96611.25;;;30.54;40.88
9709;BME280;4893;42.024;23.098;2022-08-11T14:51:40;96605.97;;;30.71;40.98
9709;BME280;4893;42.024;23.098;2022-08-11T14:54:08;96610.63;;;30.79;40.86
9709;BME280;4893;42.024;23.098;2022-08-11T14:56:52;96602.88;;;30.78;41.09
9709;BME280;4893;42.024;23.098;2022-08-11T14:59:18;96598.13;;;30.75;40.46
9709;BME280;4893;42.024;23.098;2022-08-11T15:01:44;96587.03;;;30.68;40.52
9709;BME280;4893;42.024;23.098;2022-08-11T15:04:28;96603.00;;;30.73;40.71
9709;BME280;4893;42.024;23.098;2022-08-11T15:06:54;96602.44;;;30.84;39.86
9709;BME280;4893;42.024;23.098;2022-08-11T15:09:20;96599.31;;;30.69;41.00
9709;BME280;4893;42.024;23.098;2022-08-11T15:11:45;96599.63;;;30.59;40.67
9709;BME280;4893;42.024;23.098;2022-08-11T15:14:30;96595.50;;;30.53;41.18
9709;BME280;4893;42.024;23.098;2022-08-11T15:17:14;96593.50;;;30.28;41.40
9709;BME280;4893;42.024;23.098;2022-08-11T15:19:43;96597.03;;;30.15;42.24
9709;BME280;4893;42.024;23.098;2022-08-11T15:22:27;96600.81;;;30.14;42.47
9709;BME280;4893;42.024;23.098;2022-08-11T15:25:12;96600.19;;;30.17;41.75
9709;BME280;4893;42.024;23.098;2022-08-11T15:27:38;96593.22;;;30.07;41.88
9709;BME280;4893;42.024;23.098;2022-08-11T15:30:24;96590.34;;;30.04;42.97
9709;BME280;4893;42.024;23.098;2022-08-11T15:33:12;96596.16;;;30.06;42.30
9709;BME280;4893;42.024;23.098;2022-08-11T15:35:59;96588.75;;;30.03;41.99
9709;BME280;4893;42.024;23.098;2022-08-11T15:38:58;96590.47;;;29.99;42.93
9709;BME280;4893;42.024;23.098;2022-08-11T15:41:40;96595.66;;;29.95;42.40
9709;BME280;4893;42.024;23.098;2022-08-11T15:44:30;96598.03;;;29.97;42.23
9709;BME280;4893;42.024;23.098;2022-08-11T15:47:15;96594.22;;;29.98;41.85
9709;BME280;4893;42.024;23.098;2022-08-11T15:49:43;96591.34;;;29.86;42.66
9709;BME280;4893;42.024;23.098;2022-08-11T15:52:20;96599.00;;;29.78;43.30
9709;BME280;4893;42.024;23.098;2022-08-11T15:54:47;96597.25;;;29.74;42.72
9709;BME280;4893;42.024;23.098;2022-08-11T15:57:15;96599.63;;;29.62;42.57
9709;BME280;4893;42.024;23.098;2022-08-11T16:00:04;96601.16;;;29.54;42.88
9709;BME280;4893;42.024;23.098;2022-08-11T16:02:50;96605.25;;;29.52;43.17
9709;BME280;4893;42.024;23.098;2022-08-11T16:05:19;96604.97;;;29.40;42.77
9709;BME280;4893;42.024;23.098;2022-08-11T16:07:46;96620.47;;;29.29;43.48
9709;BME280;4893;42.024;23.098;2022-08-11T16:10:15;96610.44;;;29.21;45.55
9709;BME280;4893;42.024;23.098;2022-08-11T16:13:02;96610.56;;;29.03;46.87
9709;BME280;4893;42.024;23.098;2022-08-11T16:15:34;96592.75;;;28.71;46.96
9709;BME280;4893;42.024;23.098;2022-08-11T16:18:25;96610.66;;;28.84;47.23
9709;BME280;4893;42.024;23.098;2022-08-11T16:21:07;96616.53;;;28.86;48.47
9709;BME280;4893;42.024;23.098;2022-08-11T16:23:35;96611.00;;;28.69;48.70
9709;BME280;4893;42.024;23.098;2022-08-11T16:26:02;96609.50;;;28.49;49.15
9709;BME280;4893;42.024;23.098;2022-08-11T16:28:30;96614.19;;;28.39;50.22
9709;BME280;4893;42.024;23.098;2022-08-11T16:30:59;96621.06;;;28.45;49.69
9709;BME280;4893;42.024;23.098;2022-08-11T16:33:26;96621.91;;;28.40;50.63
9709;BME280;4893;42.024;23.098;2022-08-11T16:35:53;96619.84;;;28.37;50.83
9709;BME280;4893;42.024;23.098;2022-08-11T16:38:38;96624.28;;;28.42;51.10
9709;BME280;4893;42.024;23.098;2022-08-11T16:41:08;96617.63;;;28.26;51.56
9709;BME280;4893;42.024;23.098;2022-08-11T16:43:39;96620.41;;;28.21;51.72
9709;BME280;4893;42.024;23.098;2022-08-11T16:46:24;96626.22;;;28.09;52.75
9709;BME280;4893;42.024;23.098;2022-08-11T16:49:29;96629.75;;;28.05;52.80
9709;BME280;4893;42.024;23.098;2022-08-11T16:51:56;96623.44;;;28.01;53.92
9709;BME280;4893;42.024;23.098;2022-08-11T16:54:21;96622.34;;;27.83;53.54
9709;BME280;4893;42.024;23.098;2022-08-11T16:56:54;96644.66;;;27.92;53.61
9709;BME280;4893;42.024;23.098;2022-08-11T16:59:31;96641.22;;;27.87;51.15
9709;BME280;4893;42.024;23.098;2022-08-11T17:02:05;96649.63;;;27.80;54.57
9709;BME280;4893;42.024;23.098;2022-08-11T17:04:51;96652.53;;;27.65;54.42
9709;BME280;4893;42.024;23.098;2022-08-11T17:07:38;96646.13;;;27.48;54.45
9709;BME280;4893;42.024;23.098;2022-08-11T17:10:38;96645.81;;;27.31;56.47
9709;BME280;4893;42.024;23.098;2022-08-11T17:13:33;96650.13;;;27.27;56.40
9709;BME280;4893;42.024;23.098;2022-08-11T17:16:00;96649.09;;;27.22;55.39